METAR Data
IDs: Format: Raw Decoded Include TAF

Data at: 1900 UTC 28 Nov 2022

LELC 281830Z 33013KT 290V350 CAVOK 17/02 Q1021 NOSIG